createdAt,value
2019-03-18T00:01:01.326Z,11.60
2019-03-18T00:03:32.123Z,11.50
2019-03-18T00:06:02.870Z,11.40
2019-03-18T00:08:33.837Z,11.40
2019-03-18T00:11:04.541Z,11.40
2019-03-18T00:13:35.327Z,11.30
2019-03-18T00:16:06.326Z,11.30
2019-03-18T00:18:37.075Z,11.30
2019-03-18T00:21:07.822Z,11.20
2019-03-18T00:23:38.748Z,11.10
2019-03-18T00:26:09.473Z,11.00
2019-03-18T00:28:40.160Z,10.90
2019-03-18T00:31:10.947Z,10.80
2019-03-18T00:33:41.670Z,10.80
2019-03-18T00:36:12.514Z,10.70
2019-03-18T00:38:43.304Z,10.70
2019-03-18T00:41:14.734Z,10.50
2019-03-18T00:43:45.301Z,10.60
2019-03-18T00:46:15.807Z,10.50
2019-03-18T00:48:46.584Z,10.50
2019-03-18T00:51:17.107Z,10.50
2019-03-18T00:53:47.721Z,10.30
2019-03-18T00:56:18.181Z,10.30
2019-03-18T00:58:48.781Z,10.30
2019-03-18T01:01:19.351Z,10.20
2019-03-18T01:03:50.454Z,10.20
2019-03-18T01:06:21.476Z,10.10
2019-03-18T01:08:51.947Z,10.10
2019-03-18T01:11:22.559Z,10.00
2019-03-18T01:13:53.162Z,10.00
2019-03-18T01:16:23.653Z,9.90
2019-03-18T01:18:54.105Z,9.90
2019-03-18T01:21:24.656Z,9.80
2019-03-18T01:23:55.123Z,9.80
2019-03-18T01:26:25.570Z,9.80
2019-03-18T01:28:56.165Z,9.70
2019-03-18T01:31:26.813Z,9.70
2019-03-18T01:33:57.327Z,9.70
2019-03-18T01:36:28.060Z,9.60
2019-03-18T01:38:58.617Z,9.60
2019-03-18T01:41:29.160Z,9.50
2019-03-18T01:43:59.682Z,9.30
2019-03-18T01:46:30.257Z,9.30
2019-03-18T01:49:00.959Z,9.10
2019-03-18T01:51:31.483Z,9.00
2019-03-18T01:54:01.912Z,8.80
2019-03-18T01:56:32.590Z,8.70
2019-03-18T01:59:03.163Z,8.60
2019-03-18T02:01:33.693Z,8.50
2019-03-18T02:04:04.278Z,8.40
2019-03-18T02:06:34.842Z,8.30
2019-03-18T02:09:06.946Z,8.20
2019-03-18T02:11:37.522Z,8.20
2019-03-18T02:14:07.965Z,8.10
2019-03-18T02:16:38.447Z,8.10
2019-03-18T02:19:09.059Z,8.00
2019-03-18T02:21:39.500Z,8.10
2019-03-18T02:24:09.929Z,8.00
2019-03-18T02:26:40.437Z,8.00
2019-03-18T02:29:10.917Z,7.90
2019-03-18T02:31:41.442Z,7.80
2019-03-18T02:34:13.006Z,7.80
2019-03-18T02:36:43.457Z,7.70
2019-03-18T02:39:13.976Z,7.70
2019-03-18T02:41:44.572Z,7.70
2019-03-18T02:44:15.083Z,7.60
2019-03-18T02:46:45.568Z,7.60
2019-03-18T02:49:16.060Z,7.50
2019-03-18T02:51:46.604Z,7.50
2019-03-18T02:54:17.093Z,7.40
2019-03-18T02:56:47.625Z,7.30
2019-03-18T02:59:19.088Z,7.30
2019-03-18T03:01:49.531Z,7.20
2019-03-18T03:04:19.996Z,7.10
2019-03-18T03:06:50.598Z,7.10
2019-03-18T03:09:21.188Z,7.00
2019-03-18T03:11:51.816Z,7.00
2019-03-18T03:14:22.339Z,6.90
2019-03-18T03:16:52.749Z,6.90
2019-03-18T03:19:23.223Z,6.90
2019-03-18T03:21:53.767Z,6.90
2019-03-18T03:24:24.273Z,6.90
2019-03-18T03:26:54.799Z,6.90
2019-03-18T03:29:25.335Z,6.80
2019-03-18T03:31:55.837Z,6.90
2019-03-18T03:34:26.243Z,6.80
2019-03-18T03:36:57.047Z,6.80
2019-03-18T03:39:27.457Z,6.80
2019-03-18T03:41:58.070Z,6.80
2019-03-18T03:44:29.503Z,6.80
2019-03-18T03:47:00.012Z,6.80
2019-03-18T03:49:30.491Z,6.80
2019-03-18T03:52:01.028Z,6.80
2019-03-18T03:54:31.545Z,6.80
2019-03-18T03:57:02.053Z,6.90
2019-03-18T03:59:32.789Z,6.80
2019-03-18T04:02:03.320Z,6.80
2019-03-18T04:04:33.728Z,6.90
2019-03-18T04:07:04.237Z,6.80
2019-03-18T04:09:34.665Z,6.80
2019-03-18T04:12:05.126Z,6.80
2019-03-18T04:14:35.556Z,6.80
2019-03-18T04:17:07.359Z,6.80
2019-03-18T04:19:38.041Z,6.80
2019-03-18T04:22:08.504Z,6.80
2019-03-18T04:24:38.959Z,6.80
2019-03-18T04:27:09.735Z,6.80
2019-03-18T04:29:40.296Z,6.70
2019-03-18T04:32:10.914Z,6.70
2019-03-18T04:34:41.418Z,6.70
2019-03-18T04:37:11.887Z,6.70
2019-03-18T04:39:42.502Z,6.60
2019-03-18T04:42:13.011Z,6.70
2019-03-18T04:44:43.650Z,6.60
2019-03-18T04:47:14.801Z,6.70
2019-03-18T04:49:45.321Z,6.60
2019-03-18T04:52:15.879Z,6.70
2019-03-18T04:54:46.422Z,6.60
2019-03-18T04:57:16.964Z,6.60
2019-03-18T04:59:47.418Z,6.60
2019-03-18T05:02:18.020Z,6.60
2019-03-18T05:04:48.600Z,6.60
2019-03-18T05:07:19.238Z,6.50
2019-03-18T05:09:49.815Z,6.50
2019-03-18T05:12:20.446Z,6.40
2019-03-18T05:14:51.000Z,6.30
2019-03-18T05:17:26.703Z,6.30
2019-03-18T05:19:53.618Z,6.30
2019-03-18T05:22:24.124Z,6.30
2019-03-18T05:24:54.633Z,6.30
2019-03-18T05:27:25.238Z,6.30
2019-03-18T05:29:55.630Z,6.40
2019-03-18T05:32:26.163Z,6.40
2019-03-18T05:34:56.697Z,6.40
2019-03-18T05:37:27.170Z,6.50
2019-03-18T05:39:57.631Z,6.50
2019-03-18T05:42:28.203Z,6.50
2019-03-18T05:44:58.749Z,6.60
2019-03-18T05:47:38.708Z,6.50
2019-03-18T05:50:01.571Z,6.60
2019-03-18T05:52:32.122Z,6.60
2019-03-18T05:55:02.746Z,6.60
2019-03-18T05:57:33.397Z,6.60
2019-03-18T06:00:04.391Z,6.50
2019-03-18T06:02:35.026Z,6.50
2019-03-18T06:05:06.842Z,6.50
2019-03-18T06:07:37.465Z,6.50
2019-03-18T06:10:09.008Z,6.50
2019-03-18T06:12:39.541Z,6.50
2019-03-18T06:15:10.326Z,6.50
2019-03-18T06:17:51.791Z,6.60
2019-03-18T06:20:13.165Z,6.50
2019-03-18T06:22:43.688Z,6.50
2019-03-18T06:25:14.506Z,6.60
2019-03-18T06:27:45.309Z,6.60
2019-03-18T06:30:15.823Z,6.60
2019-03-18T06:32:46.330Z,6.70
2019-03-18T06:35:16.943Z,6.70
2019-03-18T06:37:47.482Z,6.70
2019-03-18T06:40:19.026Z,6.80
2019-03-18T06:42:49.584Z,6.80
2019-03-18T06:45:20.132Z,6.90
2019-03-18T06:47:51.063Z,7.00
2019-03-18T06:50:23.175Z,7.00
2019-03-18T06:52:54.620Z,7.00
2019-03-18T06:55:25.222Z,7.10
2019-03-18T06:57:55.757Z,7.10
2019-03-18T07:00:26.375Z,7.20
2019-03-18T07:02:56.926Z,7.20
2019-03-18T07:05:27.477Z,7.20
2019-03-18T07:07:57.970Z,7.30
2019-03-18T07:10:28.625Z,7.30
2019-03-18T07:12:59.151Z,7.30
2019-03-18T07:15:29.772Z,7.40
2019-03-18T07:18:00.197Z,7.50
2019-03-18T07:20:30.685Z,7.60
2019-03-18T07:23:02.999Z,7.70
2019-03-18T07:25:33.633Z,7.70
2019-03-18T07:28:04.173Z,7.70
2019-03-18T07:30:34.819Z,7.80
2019-03-18T07:33:05.390Z,7.80
2019-03-18T07:35:35.906Z,7.80
2019-03-18T07:38:06.410Z,7.90
2019-03-18T07:40:38.493Z,8.00
2019-03-18T07:43:09.016Z,8.30
2019-03-18T07:45:39.607Z,8.50
2019-03-18T07:48:12.470Z,8.80
2019-03-18T07:50:42.464Z,8.90
2019-03-18T07:53:12.976Z,9.00
2019-03-18T07:55:43.468Z,9.00
2019-03-18T07:58:14.124Z,9.00
2019-03-18T08:00:44.809Z,9.00
2019-03-18T08:03:15.533Z,8.80
2019-03-18T08:05:45.993Z,8.90
2019-03-18T08:08:16.496Z,8.70
2019-03-18T08:10:46.955Z,8.70
2019-03-18T08:13:17.458Z,8.60
2019-03-18T08:15:47.986Z,8.60
2019-03-18T08:18:19.499Z,8.60
2019-03-18T08:20:49.993Z,8.60
2019-03-18T08:23:20.559Z,8.50
2019-03-18T08:25:51.067Z,8.60
2019-03-18T08:28:21.605Z,8.60
2019-03-18T08:30:52.293Z,8.70
2019-03-18T08:33:22.808Z,8.70
2019-03-18T08:35:53.243Z,8.70
2019-03-18T08:38:24.074Z,8.60
2019-03-18T08:40:55.753Z,8.70
2019-03-18T08:43:26.407Z,8.60
2019-03-18T08:45:56.929Z,8.60
2019-03-18T08:48:27.901Z,8.60
2019-03-18T08:50:58.477Z,8.60
2019-03-18T08:53:29.097Z,8.50
2019-03-18T08:55:59.747Z,8.60
2019-03-18T08:58:30.330Z,8.60
2019-03-18T09:01:00.822Z,8.60
2019-03-18T09:03:31.304Z,8.60
2019-03-18T09:06:01.990Z,8.50
2019-03-18T09:08:32.430Z,8.60
2019-03-18T09:11:02.935Z,8.60
2019-03-18T09:13:33.490Z,8.60
2019-03-18T09:16:03.982Z,8.60
2019-03-18T09:18:34.597Z,8.50
2019-03-18T09:21:12.726Z,8.60
2019-03-18T09:23:43.115Z,8.60
2019-03-18T09:26:13.620Z,8.70
2019-03-18T09:28:44.081Z,8.80
2019-03-18T09:31:15.674Z,9.00
2019-03-18T09:33:46.243Z,9.00
2019-03-18T09:36:16.755Z,9.00
2019-03-18T09:38:47.243Z,9.00
2019-03-18T09:41:18.677Z,9.00
2019-03-18T09:43:49.182Z,9.00
2019-03-18T09:46:19.609Z,9.00
2019-03-18T09:48:50.156Z,9.00
2019-03-18T09:51:20.729Z,9.00
2019-03-18T09:53:56.308Z,9.10
2019-03-18T09:56:26.801Z,9.10
2019-03-18T09:58:57.346Z,9.00
2019-03-18T10:01:27.782Z,9.00
2019-03-18T10:03:58.243Z,8.90
2019-03-18T10:06:28.700Z,8.90
2019-03-18T10:08:59.407Z,8.90
2019-03-18T10:11:29.912Z,8.90
2019-03-18T10:14:00.324Z,8.90
2019-03-18T10:16:30.851Z,9.00
2019-03-18T10:19:01.301Z,9.00
2019-03-18T10:21:31.895Z,9.00
2019-03-18T10:24:02.711Z,9.00
2019-03-18T10:26:33.226Z,8.90
2019-03-18T10:29:04.017Z,8.90
2019-03-18T10:31:34.512Z,8.90
2019-03-18T10:34:05.070Z,8.90
2019-03-18T10:36:35.573Z,8.90
2019-03-18T10:39:08.049Z,8.80
2019-03-18T10:41:38.512Z,8.80
2019-03-18T10:44:09.000Z,8.90
2019-03-18T10:46:39.516Z,9.00
2019-03-18T10:49:10.034Z,9.00
2019-03-18T10:51:40.639Z,9.00
2019-03-18T10:54:11.050Z,9.00
2019-03-18T10:56:41.800Z,8.90
2019-03-18T10:59:12.347Z,8.90
2019-03-18T11:01:42.823Z,8.80
2019-03-18T11:04:13.432Z,8.80
2019-03-18T11:06:44.033Z,8.80
2019-03-18T11:09:14.901Z,8.80
2019-03-18T11:11:45.429Z,8.90
2019-03-18T11:14:16.097Z,8.90
2019-03-18T11:16:46.559Z,8.80
2019-03-18T11:19:17.163Z,8.80
2019-03-18T11:21:48.643Z,8.90
2019-03-18T11:24:19.201Z,9.00
2019-03-18T11:26:49.968Z,9.10
2019-03-18T11:29:21.633Z,9.20
2019-03-18T11:31:52.304Z,9.20
2019-03-18T11:34:22.742Z,9.30
2019-03-18T11:36:53.267Z,9.30
2019-03-18T11:39:24.795Z,9.30
2019-03-18T11:41:55.235Z,9.30
2019-03-18T11:44:25.683Z,9.30
2019-03-18T11:46:56.152Z,9.30
2019-03-18T11:49:38.785Z,9.40
2019-03-18T11:51:59.180Z,9.40
2019-03-18T11:54:30.074Z,9.40
2019-03-18T11:57:00.857Z,9.50
2019-03-18T11:59:31.347Z,9.50
2019-03-18T12:02:01.842Z,9.50
2019-03-18T12:04:32.917Z,9.50
2019-03-18T12:07:03.708Z,9.60
2019-03-18T12:09:34.618Z,9.60
2019-03-18T12:12:05.492Z,9.70
2019-03-18T12:14:36.054Z,9.80
2019-03-18T12:17:06.618Z,9.80
2019-03-18T12:19:37.205Z,9.70
2019-03-18T12:22:07.908Z,9.70
2019-03-18T12:24:38.466Z,9.70
2019-03-18T12:27:09.108Z,9.80
2019-03-18T12:29:39.611Z,9.80
2019-03-18T12:32:10.109Z,9.80
2019-03-18T12:34:40.656Z,10.00
2019-03-18T12:37:11.434Z,10.00
2019-03-18T12:39:41.939Z,10.00
2019-03-18T12:42:12.458Z,10.00
2019-03-18T12:44:43.164Z,10.10
2019-03-18T12:47:13.791Z,10.10
2019-03-18T12:49:44.487Z,10.10
2019-03-18T12:52:15.076Z,10.10
2019-03-18T12:54:45.606Z,10.10
2019-03-18T12:57:16.111Z,10.10
2019-03-18T12:59:46.648Z,10.10
2019-03-18T13:02:18.135Z,10.10
2019-03-18T13:04:48.665Z,10.20
2019-03-18T13:07:19.245Z,10.20
2019-03-18T13:09:49.835Z,10.20
2019-03-18T13:12:20.593Z,10.20
2019-03-18T13:14:51.135Z,10.20
2019-03-18T13:17:21.637Z,10.20
2019-03-18T13:19:52.047Z,10.30
2019-03-18T13:22:22.598Z,10.30
2019-03-18T13:24:53.189Z,10.40
2019-03-18T13:27:23.697Z,10.40
2019-03-18T13:29:54.167Z,10.30
2019-03-18T13:32:24.634Z,10.30
2019-03-18T13:34:55.227Z,10.20
2019-03-18T13:37:25.727Z,10.20
2019-03-18T13:39:56.170Z,10.20
2019-03-18T13:42:26.640Z,10.20
2019-03-18T13:44:57.337Z,10.40
2019-03-18T13:47:27.908Z,10.50
2019-03-18T13:49:58.493Z,10.50
2019-03-18T13:52:28.998Z,10.60
2019-03-18T13:54:59.570Z,10.60
2019-03-18T13:57:30.402Z,10.60
2019-03-18T14:00:00.974Z,10.60
2019-03-18T14:02:31.620Z,10.60
2019-03-18T14:05:02.202Z,10.70
2019-03-18T14:07:32.755Z,10.70
2019-03-18T14:10:03.402Z,10.90
2019-03-18T14:12:36.995Z,10.90
2019-03-18T14:15:08.234Z,10.90
2019-03-18T14:17:40.116Z,10.90
2019-03-18T14:20:11.701Z,10.80
2019-03-18T14:22:42.281Z,10.90
2019-03-18T14:25:12.832Z,10.80
2019-03-18T14:27:43.415Z,10.70
2019-03-18T14:30:15.415Z,10.60
2019-03-18T14:32:45.954Z,10.60
2019-03-18T14:35:16.510Z,10.60
2019-03-18T14:37:47.076Z,10.60
2019-03-18T14:40:17.575Z,10.60
2019-03-18T14:42:48.079Z,10.60
2019-03-18T14:45:18.860Z,10.60
2019-03-18T14:47:49.636Z,10.70
2019-03-18T14:50:20.272Z,10.60
2019-03-18T14:52:50.986Z,10.60
2019-03-18T14:55:21.594Z,10.60
2019-03-18T14:57:52.331Z,10.60
2019-03-18T15:00:22.962Z,10.50
2019-03-18T15:02:53.709Z,10.50
2019-03-18T15:05:24.153Z,10.40
2019-03-18T15:07:54.608Z,10.40
2019-03-18T15:10:25.221Z,10.40
2019-03-18T15:12:55.961Z,10.30
2019-03-18T15:15:26.536Z,10.20
2019-03-18T15:17:57.127Z,10.20
2019-03-18T15:20:27.752Z,10.20
2019-03-18T15:22:58.359Z,10.10
2019-03-18T15:25:28.895Z,10.00
2019-03-18T15:27:59.440Z,9.90
2019-03-18T15:30:29.861Z,9.80
2019-03-18T15:33:00.669Z,9.70
2019-03-18T15:35:31.229Z,9.70
2019-03-18T15:38:01.937Z,9.80
2019-03-18T15:40:32.407Z,9.80
2019-03-18T15:43:03.014Z,9.90
2019-03-18T15:45:33.504Z,9.80
2019-03-18T15:48:03.956Z,9.80
2019-03-18T15:50:34.516Z,9.80
2019-03-18T15:53:05.005Z,9.80
2019-03-18T15:55:35.589Z,9.80
2019-03-18T15:58:06.196Z,9.70
2019-03-18T16:00:36.706Z,9.70
2019-03-18T16:03:09.467Z,9.70
2019-03-18T16:05:40.029Z,9.60
2019-03-18T16:08:10.620Z,9.50
2019-03-18T16:10:41.146Z,9.50
2019-03-18T16:13:11.770Z,9.50
2019-03-18T16:15:42.287Z,9.40
2019-03-18T16:18:12.772Z,9.30
2019-03-18T16:20:43.434Z,9.20
2019-03-18T16:23:13.993Z,9.20
2019-03-18T16:25:44.447Z,9.00
2019-03-18T16:28:15.034Z,9.00
2019-03-18T16:30:45.522Z,9.00
2019-03-18T16:33:15.960Z,9.00
2019-03-18T16:35:46.625Z,9.00
2019-03-18T16:38:17.134Z,8.90
2019-03-18T16:40:47.669Z,8.90
2019-03-18T16:43:18.536Z,8.80
2019-03-18T16:45:49.366Z,8.80
2019-03-18T16:48:19.885Z,8.80
2019-03-18T16:50:50.455Z,8.70
2019-03-18T16:53:21.186Z,8.60
2019-03-18T16:55:51.690Z,8.50
2019-03-18T16:58:22.521Z,8.50
2019-03-18T17:00:53.055Z,8.40
2019-03-18T17:03:23.597Z,8.30
2019-03-18T17:05:55.110Z,8.30
2019-03-18T17:08:25.607Z,8.20
2019-03-18T17:10:56.149Z,8.10
2019-03-18T17:13:26.625Z,8.00
2019-03-18T17:15:57.469Z,8.00
2019-03-18T17:18:28.000Z,8.00
2019-03-18T17:20:58.663Z,7.90
2019-03-18T17:23:29.270Z,7.90
2019-03-18T17:25:59.921Z,7.90
2019-03-18T17:28:30.456Z,7.80
2019-03-18T17:31:01.880Z,7.80
2019-03-18T17:33:32.388Z,7.70
2019-03-18T17:36:03.995Z,7.70
2019-03-18T17:38:34.645Z,7.70
2019-03-18T17:41:05.421Z,7.60
2019-03-18T17:43:35.922Z,7.60
2019-03-18T17:46:06.663Z,7.60
2019-03-18T17:48:39.529Z,7.50
2019-03-18T17:51:10.326Z,7.60
2019-03-18T17:53:40.890Z,7.50
2019-03-18T17:56:11.624Z,7.50
2019-03-18T17:58:42.214Z,7.50
2019-03-18T18:01:13.121Z,7.60
2019-03-18T18:03:43.618Z,7.70
2019-03-18T18:06:14.246Z,7.60
2019-03-18T18:08:44.755Z,7.70
2019-03-18T18:11:15.358Z,7.70
2019-03-18T18:13:45.932Z,7.70
2019-03-18T18:16:16.643Z,7.70
2019-03-18T18:18:47.271Z,7.70
2019-03-18T18:21:17.895Z,7.70
2019-03-18T18:23:49.615Z,7.70
2019-03-18T18:26:20.431Z,7.70
2019-03-18T18:28:50.991Z,7.70
2019-03-18T18:31:21.568Z,7.60
2019-03-18T18:33:52.078Z,7.60
2019-03-18T18:36:25.149Z,7.60
2019-03-18T18:38:54.744Z,7.50
2019-03-18T18:41:25.336Z,7.50
2019-03-18T18:43:55.864Z,7.40
2019-03-18T18:46:26.428Z,7.40
2019-03-18T18:48:56.974Z,7.30
2019-03-18T18:51:31.401Z,7.20
2019-03-18T18:54:02.009Z,7.20
2019-03-18T18:56:32.609Z,7.10
2019-03-18T18:59:03.145Z,7.00
2019-03-18T19:01:36.099Z,7.00
2019-03-18T19:04:06.854Z,7.00
2019-03-18T19:06:37.680Z,6.90
2019-03-18T19:09:08.630Z,6.90
2019-03-18T19:11:39.256Z,6.80
2019-03-18T19:14:09.899Z,6.80
2019-03-18T19:16:40.385Z,6.70
2019-03-18T19:19:11.951Z,6.70
2019-03-18T19:21:42.526Z,6.60
2019-03-18T19:24:13.065Z,6.60
2019-03-18T19:26:43.536Z,6.60
2019-03-18T19:29:14.251Z,6.60
2019-03-18T19:31:45.936Z,6.50
2019-03-18T19:34:16.610Z,6.50
2019-03-18T19:36:47.196Z,6.50
2019-03-18T19:39:17.801Z,6.50
2019-03-18T19:41:48.451Z,6.60
2019-03-18T19:44:19.141Z,6.50
2019-03-18T19:46:49.733Z,6.50
2019-03-18T19:49:20.292Z,6.50
2019-03-18T19:51:51.178Z,6.50
2019-03-18T19:54:21.828Z,6.50
2019-03-18T19:56:52.417Z,6.50
2019-03-18T19:59:23.118Z,6.50
2019-03-18T20:01:53.766Z,6.50
2019-03-18T20:04:24.412Z,6.50
2019-03-18T20:06:55.078Z,6.50
2019-03-18T20:09:25.666Z,6.40
2019-03-18T20:11:56.259Z,6.40
2019-03-18T20:14:29.339Z,6.40
2019-03-18T20:16:59.974Z,6.40
2019-03-18T20:19:30.549Z,6.40
2019-03-18T20:22:01.011Z,6.40
2019-03-18T20:24:31.614Z,6.40
2019-03-18T20:27:03.544Z,6.30
2019-03-18T20:29:34.119Z,6.30
2019-03-18T20:32:04.746Z,6.30
2019-03-18T20:34:35.358Z,6.20
2019-03-18T20:37:05.901Z,6.10
2019-03-18T20:39:39.009Z,6.10
2019-03-18T20:42:11.647Z,6.10
2019-03-18T20:44:42.499Z,6.10
2019-03-18T20:47:13.049Z,6.10
2019-03-18T20:49:43.671Z,6.10
2019-03-18T20:52:16.913Z,6.10
2019-03-18T20:54:48.467Z,6.10
2019-03-18T20:57:19.305Z,6.00
2019-03-18T20:59:49.842Z,6.00
2019-03-18T21:02:20.382Z,6.00
2019-03-18T21:04:51.023Z,6.10
2019-03-18T21:07:22.727Z,6.00
2019-03-18T21:09:53.355Z,6.00
2019-03-18T21:12:24.048Z,6.10
2019-03-18T21:14:54.753Z,6.10
2019-03-18T21:17:25.311Z,6.10
2019-03-18T21:19:56.060Z,6.10
2019-03-18T21:22:26.625Z,6.10
2019-03-18T21:24:57.951Z,6.10
2019-03-18T21:27:28.713Z,6.00
2019-03-18T21:29:59.674Z,6.00
2019-03-18T21:32:30.158Z,6.00
2019-03-18T21:35:00.765Z,6.00
2019-03-18T21:37:31.432Z,6.00
2019-03-18T21:40:02.342Z,5.90
2019-03-18T21:42:32.850Z,5.90
2019-03-18T21:45:03.403Z,5.80
2019-03-18T21:47:33.938Z,5.70
2019-03-18T21:50:04.723Z,5.70
2019-03-18T21:52:35.173Z,5.60
2019-03-18T21:55:06.159Z,5.50
2019-03-18T21:57:36.678Z,5.50
2019-03-18T22:00:07.582Z,5.40
2019-03-18T22:02:39.394Z,5.30
2019-03-18T22:05:10.161Z,5.30
2019-03-18T22:07:40.672Z,5.20
2019-03-18T22:10:12.626Z,5.10
2019-03-18T22:12:43.109Z,5.00
2019-03-18T22:15:13.859Z,5.00
2019-03-18T22:17:46.599Z,5.00
2019-03-18T22:20:17.202Z,4.90
2019-03-18T22:22:47.684Z,4.80
2019-03-18T22:25:20.556Z,4.70
2019-03-18T22:27:51.004Z,4.70
2019-03-18T22:30:23.226Z,4.70
2019-03-18T22:32:53.673Z,4.60
2019-03-18T22:35:24.564Z,4.60
2019-03-18T22:37:54.973Z,4.60
2019-03-18T22:40:25.731Z,4.60
2019-03-18T22:42:56.236Z,4.60
2019-03-18T22:45:27.033Z,4.50
2019-03-18T22:47:57.458Z,4.50
2019-03-18T22:50:28.106Z,4.50
2019-03-18T22:52:58.744Z,4.50
2019-03-18T22:55:29.626Z,4.40
2019-03-18T22:58:00.185Z,4.40
2019-03-18T23:00:47.262Z,4.30
2019-03-18T23:03:18.084Z,4.30
2019-03-18T23:05:48.571Z,4.20
2019-03-18T23:08:21.501Z,4.20
2019-03-18T23:10:52.123Z,4.10
2019-03-18T23:13:22.717Z,4.10
2019-03-18T23:15:55.952Z,4.10
2019-03-18T23:18:26.595Z,4.00
2019-03-18T23:20:57.364Z,3.90
2019-03-18T23:23:28.018Z,3.90
2019-03-18T23:25:58.566Z,3.80
2019-03-18T23:28:29.153Z,3.70
2019-03-18T23:30:59.594Z,3.80
2019-03-18T23:33:30.324Z,3.70
2019-03-18T23:36:01.035Z,3.70
2019-03-18T23:38:31.745Z,3.70
2019-03-18T23:41:02.282Z,3.70
2019-03-18T23:43:33.930Z,3.70
2019-03-18T23:46:04.371Z,3.70
2019-03-18T23:48:34.957Z,3.60
2019-03-18T23:51:05.578Z,3.60
2019-03-18T23:53:36.122Z,3.60
2019-03-18T23:56:06.598Z,3.60
2019-03-18T23:58:37.111Z,3.60
